createdAt,value
2022-08-25T00:04:44.019Z,16.69
2022-08-25T00:14:46.352Z,17.03
2022-08-25T00:24:48.532Z,17.18
2022-08-25T00:34:50.747Z,17.28
2022-08-25T00:44:54.015Z,17.41
2022-08-25T00:55:08.365Z,17.51
2022-08-25T01:05:11.487Z,17.56
2022-08-25T01:15:15.154Z,17.59
2022-08-25T01:26:13.361Z,17.58
2022-08-25T01:36:18.895Z,17.45
2022-08-25T01:46:21.302Z,17.49
2022-08-25T01:56:23.493Z,17.59
2022-08-25T02:06:30.028Z,17.72
2022-08-25T02:16:35.960Z,17.75
2022-08-25T02:26:38.841Z,17.83
2022-08-25T02:36:41.244Z,17.86
2022-08-25T02:46:43.443Z,17.85
2022-08-25T02:56:45.760Z,17.86
2022-08-25T03:06:48.462Z,17.89
2022-08-25T03:16:50.784Z,17.93
2022-08-25T03:26:56.451Z,17.91
2022-08-25T03:36:59.642Z,17.73
2022-08-25T03:47:01.806Z,17.73
2022-08-25T03:57:04.371Z,17.86
2022-08-25T04:07:07.016Z,17.95
2022-08-25T04:17:10.172Z,18.00
2022-08-25T04:27:12.427Z,18.03
2022-08-25T04:37:15.108Z,18.04
2022-08-25T04:47:17.276Z,18.20
2022-08-25T04:57:19.414Z,18.36
2022-08-25T05:07:21.568Z,18.40
2022-08-25T05:17:23.800Z,18.48
2022-08-25T05:27:25.975Z,18.53
2022-08-25T05:37:28.148Z,18.72
2022-08-25T05:47:30.282Z,18.93
2022-08-25T05:57:34.414Z,19.13
2022-08-25T06:07:36.792Z,19.49
2022-08-25T06:17:43.103Z,19.81
2022-08-25T06:27:46.150Z,20.26
2022-08-25T06:37:48.406Z,20.75
2022-08-25T06:47:52.108Z,21.15
2022-08-25T06:57:55.258Z,21.35
2022-08-25T07:07:57.620Z,21.62
2022-08-25T07:17:59.761Z,21.90
2022-08-25T07:28:02.927Z,21.94
2022-08-25T07:38:10.110Z,22.09
2022-08-25T07:48:13.374Z,22.30
2022-08-25T07:58:16.078Z,22.64
2022-08-25T08:08:19.067Z,22.85
2022-08-25T08:18:21.575Z,23.10
2022-08-25T08:28:28.018Z,23.60
2022-08-25T08:38:30.738Z,24.18
2022-08-25T08:48:55.940Z,24.73
2022-08-25T08:59:22.438Z,25.17
2022-08-25T09:09:36.137Z,25.39
2022-08-25T09:19:53.821Z,25.62
2022-08-25T09:30:05.222Z,25.73
2022-08-25T09:40:09.649Z,25.73
2022-08-25T09:50:18.462Z,25.74
2022-08-25T10:00:27.278Z,26.03
2022-08-25T10:10:37.258Z,26.66
2022-08-25T10:20:44.696Z,27.23
2022-08-25T10:31:02.502Z,27.85
2022-08-25T10:41:39.029Z,28.54
2022-08-25T10:52:05.565Z,28.34
2022-08-25T11:02:33.670Z,28.85
2022-08-25T11:12:43.832Z,28.75
2022-08-25T11:23:04.744Z,28.68
2022-08-25T11:33:08.259Z,28.32
2022-08-25T11:43:10.890Z,28.41
2022-08-25T11:53:13.043Z,28.65
2022-08-25T12:03:36.449Z,28.07
2022-08-25T12:13:47.647Z,28.24
2022-08-25T12:24:02.022Z,28.80
2022-08-25T12:34:30.820Z,28.51
2022-08-25T12:45:16.717Z,28.13
2022-08-25T12:55:22.257Z,28.07
2022-08-25T13:06:00.129Z,27.88
2022-08-25T13:16:07.356Z,27.86
2022-08-25T13:26:27.617Z,27.98
2022-08-25T13:37:01.072Z,28.32
2022-08-25T13:47:10.008Z,28.13
2022-08-25T13:57:21.736Z,28.24
2022-08-25T14:07:25.940Z,28.12
2022-08-25T14:17:39.287Z,28.05
2022-08-25T14:38:11.009Z,27.58
2022-08-25T14:48:21.421Z,27.60
2022-08-25T14:58:25.783Z,27.59
2022-08-25T15:08:47.723Z,27.48
2022-08-25T15:18:50.366Z,27.40
2022-08-25T15:28:52.726Z,27.03
2022-08-25T15:38:55.073Z,26.71
2022-08-25T15:48:59.686Z,26.57
2022-08-25T15:59:05.599Z,26.39
2022-08-25T16:09:10.928Z,26.43
2022-08-25T16:19:15.154Z,26.23
2022-08-25T16:29:19.145Z,25.84
2022-08-25T16:39:23.928Z,25.51
2022-08-25T16:49:26.305Z,25.30
2022-08-25T16:59:29.332Z,24.84
2022-08-25T17:09:31.798Z,24.46
2022-08-25T17:19:34.271Z,24.18
2022-08-25T17:29:37.822Z,23.81
2022-08-25T17:39:40.014Z,23.38
2022-08-25T17:49:42.304Z,22.98
2022-08-25T17:59:44.575Z,22.65
2022-08-25T18:09:46.943Z,22.31
2022-08-25T18:19:49.754Z,22.06
2022-08-25T18:29:51.929Z,21.99
2022-08-25T18:40:12.514Z,21.83
2022-08-25T18:50:16.512Z,21.61
2022-08-25T19:00:21.556Z,21.40
2022-08-25T19:10:24.045Z,21.17
2022-08-25T19:20:30.235Z,21.12
2022-08-25T19:30:34.402Z,21.12
2022-08-25T19:40:37.973Z,21.00
2022-08-25T19:50:41.552Z,20.83
2022-08-25T20:00:46.177Z,20.81
2022-08-25T20:10:50.484Z,20.81
2022-08-25T20:20:52.727Z,20.76
